createdAt,value
2022-10-17T00:00:45.547Z,72.40
2022-10-17T00:03:34.364Z,72.62
2022-10-17T00:06:09.795Z,72.53
2022-10-17T00:08:42.885Z,72.59
2022-10-17T00:11:18.967Z,72.58
2022-10-17T00:13:52.056Z,72.61
2022-10-17T00:16:29.181Z,72.57
2022-10-17T00:19:01.337Z,72.60
2022-10-17T00:21:33.220Z,72.51
2022-10-17T00:24:05.223Z,72.44
2022-10-17T00:26:37.066Z,72.61
2022-10-17T00:29:08.892Z,72.78
2022-10-17T00:31:40.888Z,72.76
2022-10-17T00:34:12.591Z,72.99
2022-10-17T00:36:44.344Z,72.95
2022-10-17T00:39:16.084Z,72.89
2022-10-17T00:41:47.768Z,72.88
2022-10-17T00:44:54.662Z,72.77
2022-10-17T00:47:26.633Z,72.93
2022-10-17T00:49:59.617Z,72.78
2022-10-17T00:52:33.673Z,72.88
2022-10-17T00:55:10.143Z,73.09
2022-10-17T00:57:43.194Z,73.09
2022-10-17T01:00:18.444Z,73.13
2022-10-17T01:02:50.672Z,73.06
2022-10-17T01:05:23.033Z,73.04
2022-10-17T01:07:56.057Z,72.99
2022-10-17T01:10:34.443Z,73.06
2022-10-17T01:13:15.014Z,73.17
2022-10-17T01:15:58.142Z,73.19
2022-10-17T01:18:42.609Z,73.09
2022-10-17T01:21:40.409Z,73.30
2022-10-17T01:24:36.646Z,73.43
2022-10-17T01:27:30.611Z,73.57
2022-10-17T01:30:50.898Z,73.81
2022-10-17T01:33:33.769Z,73.94
2022-10-17T01:36:12.621Z,73.70
2022-10-17T01:38:48.778Z,73.74
2022-10-17T01:41:28.890Z,73.61
2022-10-17T01:44:05.537Z,73.63
2022-10-17T01:46:39.914Z,73.54
2022-10-17T01:49:14.225Z,73.62
2022-10-17T01:51:50.074Z,73.66
2022-10-17T01:54:25.933Z,73.57
2022-10-17T01:57:01.404Z,73.71
2022-10-17T01:59:41.632Z,73.67
2022-10-17T02:02:15.939Z,73.65
2022-10-17T02:04:49.664Z,73.50
2022-10-17T02:07:21.408Z,73.67
2022-10-17T02:09:53.412Z,73.56
2022-10-17T02:12:36.428Z,73.71
2022-10-17T02:15:17.985Z,73.84
2022-10-17T02:17:59.610Z,73.82
2022-10-17T02:20:38.710Z,73.96
2022-10-17T02:23:15.025Z,74.07
2022-10-17T02:25:55.237Z,74.10
2022-10-17T02:28:36.386Z,74.21
2022-10-17T02:31:14.869Z,74.12
2022-10-17T02:33:52.129Z,74.18
2022-10-17T02:36:27.535Z,74.11
2022-10-17T02:39:00.369Z,74.14
2022-10-17T02:41:34.931Z,74.14
2022-10-17T02:44:08.283Z,74.14
2022-10-17T02:46:43.535Z,74.13
2022-10-17T02:49:22.729Z,74.29
2022-10-17T02:52:02.204Z,74.43
2022-10-17T02:54:40.476Z,74.39
2022-10-17T02:57:19.733Z,74.46
2022-10-17T02:59:52.398Z,74.55
2022-10-17T03:02:24.104Z,74.50
2022-10-17T03:04:56.471Z,74.60
2022-10-17T03:07:28.257Z,74.39
2022-10-17T03:10:00.974Z,74.57
2022-10-17T03:12:33.781Z,74.65
2022-10-17T03:15:06.060Z,74.72
2022-10-17T03:17:39.210Z,74.93
2022-10-17T03:20:13.528Z,74.88
2022-10-17T03:22:45.340Z,75.00
2022-10-17T03:25:17.338Z,75.04
2022-10-17T03:27:49.184Z,75.01
2022-10-17T03:30:21.058Z,75.12
2022-10-17T03:32:53.526Z,75.24
2022-10-17T03:35:25.598Z,75.10
2022-10-17T03:37:58.958Z,75.27
2022-10-17T03:40:31.268Z,75.21
2022-10-17T03:43:03.044Z,75.33
2022-10-17T03:45:34.833Z,75.54
2022-10-17T03:48:07.624Z,75.55
2022-10-17T03:50:39.307Z,75.67
2022-10-17T03:53:12.122Z,75.73
2022-10-17T03:55:43.939Z,75.88
2022-10-17T03:58:15.653Z,75.67
2022-10-17T04:00:47.471Z,75.79
2022-10-17T04:03:19.265Z,75.96
2022-10-17T04:05:52.209Z,75.94
2022-10-17T04:08:24.155Z,75.88
2022-10-17T04:11:09.008Z,76.09
2022-10-17T04:13:40.913Z,76.19
2022-10-17T04:16:16.664Z,76.37
2022-10-17T04:19:00.439Z,76.38
2022-10-17T04:21:35.065Z,76.37
2022-10-17T04:24:13.191Z,76.46
2022-10-17T04:27:00.243Z,76.27
2022-10-17T04:29:34.182Z,76.38
2022-10-17T04:32:12.234Z,76.40
2022-10-17T04:34:51.506Z,76.27
2022-10-17T04:37:24.762Z,76.32
2022-10-17T04:39:57.701Z,76.25
2022-10-17T04:42:31.410Z,76.31
2022-10-17T04:45:03.374Z,76.29
2022-10-17T04:47:35.487Z,76.24
2022-10-17T04:50:08.402Z,76.47
2022-10-17T04:52:40.443Z,76.32
2022-10-17T04:55:13.293Z,76.37
2022-10-17T04:57:45.317Z,76.40
2022-10-17T05:00:22.503Z,76.32
2022-10-17T05:03:03.006Z,76.19
2022-10-17T05:05:35.251Z,76.05
2022-10-17T05:08:07.596Z,76.08
2022-10-17T05:10:46.168Z,75.98
2022-10-17T05:13:18.771Z,76.00
2022-10-17T05:15:50.872Z,75.98
2022-10-17T05:18:25.385Z,75.91
2022-10-17T05:20:57.703Z,75.97
2022-10-17T05:23:32.091Z,75.98
2022-10-17T05:26:04.826Z,75.93
2022-10-17T05:28:37.326Z,75.72
2022-10-17T05:31:11.232Z,75.61
2022-10-17T05:33:45.001Z,75.50
2022-10-17T05:36:17.283Z,75.23
2022-10-17T05:38:53.178Z,75.11
2022-10-17T05:41:24.949Z,75.09
2022-10-17T05:43:59.417Z,74.82
2022-10-17T05:46:42.650Z,74.84
2022-10-17T05:49:32.198Z,74.73
2022-10-17T05:52:05.877Z,74.49
2022-10-17T05:54:42.151Z,74.35
2022-10-17T05:57:13.931Z,74.10
2022-10-17T05:59:46.109Z,73.86
2022-10-17T06:02:21.842Z,73.70
2022-10-17T06:04:54.013Z,73.56
2022-10-17T06:07:27.955Z,73.13
2022-10-17T06:09:59.841Z,73.13
2022-10-17T06:12:31.786Z,72.89
2022-10-17T06:15:04.239Z,72.80
2022-10-17T06:17:36.180Z,72.50
2022-10-17T06:20:09.578Z,72.22
2022-10-17T06:22:41.641Z,72.09
2022-10-17T06:25:18.905Z,71.79
2022-10-17T06:27:50.788Z,71.34
2022-10-17T06:30:23.124Z,71.10
2022-10-17T06:32:55.678Z,71.18
2022-10-17T06:35:27.611Z,70.55
2022-10-17T06:37:59.602Z,70.61
2022-10-17T06:40:31.633Z,70.46
2022-10-17T06:43:04.335Z,70.18
2022-10-17T06:46:02.117Z,69.61
2022-10-17T06:48:42.454Z,69.23
2022-10-17T06:51:23.201Z,69.47
2022-10-17T06:54:00.024Z,68.90
2022-10-17T06:56:50.560Z,68.91
2022-10-17T06:59:35.042Z,68.50
2022-10-17T07:02:15.251Z,68.20
2022-10-17T07:04:49.650Z,67.75
2022-10-17T07:07:21.549Z,67.72
2022-10-17T07:09:54.351Z,67.38
2022-10-17T07:12:26.383Z,66.48
2022-10-17T07:14:58.179Z,66.46
2022-10-17T07:17:30.439Z,65.80
2022-10-17T07:20:02.504Z,65.69
2022-10-17T07:22:37.221Z,65.50
2022-10-17T07:25:11.469Z,65.09
2022-10-17T07:27:55.738Z,65.26
2022-10-17T07:30:28.419Z,65.16
2022-10-17T07:33:14.204Z,65.09
2022-10-17T07:35:46.116Z,64.86
2022-10-17T07:38:18.128Z,64.59
2022-10-17T07:40:56.661Z,64.41
2022-10-17T07:43:29.446Z,64.64
2022-10-17T07:46:01.951Z,64.30
2022-10-17T07:48:34.769Z,64.20
2022-10-17T07:51:08.207Z,64.15
2022-10-17T07:53:42.754Z,63.91
2022-10-17T07:56:16.902Z,63.68
2022-10-17T07:58:49.253Z,63.47
2022-10-17T08:01:21.501Z,63.25
2022-10-17T08:03:53.821Z,63.39
2022-10-17T08:06:26.059Z,63.37
2022-10-17T08:08:59.691Z,63.12
2022-10-17T08:11:31.548Z,63.37
2022-10-17T08:14:03.240Z,62.90
2022-10-17T08:16:35.208Z,62.81
2022-10-17T08:21:46.965Z,62.70
2022-10-17T08:24:18.695Z,62.79
2022-10-17T08:26:51.878Z,62.95
2022-10-17T08:29:24.191Z,62.17
2022-10-17T08:32:00.904Z,62.44
2022-10-17T08:34:33.554Z,62.50
2022-10-17T08:37:05.420Z,62.01
2022-10-17T08:39:37.206Z,61.69
2022-10-17T08:42:46.202Z,61.37
2022-10-17T08:45:26.134Z,61.30
2022-10-17T08:48:01.459Z,60.90
2022-10-17T08:50:40.061Z,61.31
2022-10-17T08:53:21.055Z,61.18
2022-10-17T08:55:54.950Z,60.71
2022-10-17T08:58:30.109Z,60.64
2022-10-17T09:01:12.853Z,60.60
2022-10-17T09:03:54.770Z,59.87
2022-10-17T09:06:30.896Z,59.76
2022-10-17T09:09:22.038Z,59.58
2022-10-17T09:12:11.113Z,59.63
2022-10-17T09:15:13.673Z,59.14
2022-10-17T09:17:54.663Z,58.90
2022-10-17T09:20:30.152Z,58.20
2022-10-17T09:23:06.989Z,57.91
2022-10-17T09:25:46.997Z,57.55
2022-10-17T09:28:23.595Z,57.11
2022-10-17T09:31:01.846Z,57.23
2022-10-17T09:33:53.214Z,57.03
2022-10-17T09:36:29.258Z,56.88
2022-10-17T09:39:01.954Z,56.90
2022-10-17T09:41:46.784Z,56.52
2022-10-17T09:44:25.006Z,55.88
2022-10-17T09:47:21.506Z,55.89
2022-10-17T09:49:54.017Z,55.83
2022-10-17T09:52:42.045Z,56.17
2022-10-17T09:55:22.374Z,55.38
2022-10-17T09:58:01.947Z,55.91
2022-10-17T10:00:36.666Z,56.22
2022-10-17T10:03:20.710Z,55.48
2022-10-17T10:06:04.588Z,55.79
2022-10-17T10:08:38.138Z,55.33
2022-10-17T10:11:14.057Z,55.05
2022-10-17T10:13:49.633Z,55.28
2022-10-17T10:16:26.695Z,54.74
2022-10-17T10:18:58.859Z,54.46
2022-10-17T10:21:30.839Z,54.30
2022-10-17T10:24:15.059Z,53.97
2022-10-17T10:26:48.992Z,53.84
2022-10-17T10:29:31.166Z,53.04
2022-10-17T10:32:13.645Z,53.56
2022-10-17T10:34:51.505Z,53.55
2022-10-17T10:37:26.366Z,52.97
2022-10-17T10:40:00.504Z,51.89
2022-10-17T10:42:36.711Z,52.10
2022-10-17T10:45:42.765Z,52.43
2022-10-17T10:48:22.932Z,52.64
2022-10-17T10:50:58.286Z,52.23
2022-10-17T10:53:39.364Z,51.78
2022-10-17T10:56:18.269Z,51.57
2022-10-17T10:58:59.845Z,51.16
2022-10-17T11:01:36.778Z,51.40
2022-10-17T11:04:24.578Z,51.96
2022-10-17T11:07:03.342Z,51.60
2022-10-17T11:09:47.626Z,50.56
2022-10-17T11:12:26.675Z,50.78
2022-10-17T11:15:04.424Z,50.78
2022-10-17T11:17:41.650Z,50.42
2022-10-17T11:20:22.483Z,50.62
2022-10-17T11:23:01.572Z,50.95
2022-10-17T11:25:37.706Z,50.71
2022-10-17T11:28:16.159Z,50.26
2022-10-17T11:31:03.360Z,50.43
2022-10-17T11:33:47.234Z,51.08
2022-10-17T11:36:22.601Z,50.76
2022-10-17T11:39:00.017Z,50.46
2022-10-17T11:41:37.320Z,50.50
2022-10-17T11:44:19.523Z,50.49
2022-10-17T11:46:56.804Z,50.33
2022-10-17T11:49:38.428Z,49.81
2022-10-17T11:52:51.236Z,49.98
2022-10-17T11:55:22.288Z,50.10
2022-10-17T11:58:09.797Z,50.53
2022-10-17T12:00:54.494Z,50.18
2022-10-17T12:03:47.511Z,50.23
2022-10-17T12:06:31.159Z,49.39
2022-10-17T12:09:11.574Z,49.47
2022-10-17T12:11:54.284Z,48.70
2022-10-17T12:14:44.177Z,48.70
2022-10-17T12:17:33.024Z,48.64
2022-10-17T12:20:30.591Z,48.19
2022-10-17T12:23:18.549Z,48.15
2022-10-17T12:25:58.200Z,48.05
2022-10-17T12:28:42.639Z,47.99
2022-10-17T12:31:32.532Z,48.43
2022-10-17T12:34:06.763Z,48.71
2022-10-17T12:36:42.280Z,47.64
2022-10-17T12:39:53.472Z,48.07
2022-10-17T12:42:49.195Z,48.55
2022-10-17T12:45:48.917Z,47.91
2022-10-17T12:48:55.386Z,47.50
2022-10-17T12:51:35.871Z,47.44
2022-10-17T12:54:15.218Z,47.44
2022-10-17T12:56:50.401Z,47.70
2022-10-17T12:59:26.684Z,47.50
2022-10-17T13:02:01.795Z,47.78
2022-10-17T13:04:38.931Z,47.76
2022-10-17T13:07:20.945Z,47.06
2022-10-17T13:09:53.433Z,47.19
2022-10-17T13:12:28.625Z,47.14
2022-10-17T13:15:01.000Z,47.14
2022-10-17T13:17:33.333Z,47.12
2022-10-17T13:20:05.464Z,47.22
2022-10-17T13:22:46.024Z,47.61
2022-10-17T13:25:20.001Z,47.65
2022-10-17T13:27:54.112Z,47.53
2022-10-17T13:30:31.239Z,47.50
2022-10-17T13:33:05.243Z,47.50
2022-10-17T13:35:59.364Z,47.94
2022-10-17T13:38:35.633Z,47.80
2022-10-17T13:44:13.848Z,47.74
2022-10-17T13:46:46.418Z,47.94
2022-10-17T13:49:26.203Z,47.87
2022-10-17T13:52:01.580Z,47.45
2022-10-17T13:54:40.337Z,47.72
2022-10-17T13:57:22.263Z,47.79
2022-10-17T13:59:58.132Z,47.95
2022-10-17T14:02:31.831Z,48.52
2022-10-17T14:05:22.988Z,48.37
2022-10-17T14:08:16.703Z,48.44
2022-10-17T14:10:48.666Z,48.30
2022-10-17T14:13:24.825Z,48.18
2022-10-17T14:16:01.551Z,48.66
2022-10-17T14:18:36.878Z,49.03
2022-10-17T14:24:27.416Z,48.87
2022-10-17T14:27:00.944Z,49.07
2022-10-17T14:29:50.670Z,49.21
2022-10-17T14:32:23.581Z,49.57
2022-10-17T14:35:10.774Z,50.08
2022-10-17T14:37:52.138Z,50.14
2022-10-17T14:40:27.192Z,50.30
2022-10-17T14:43:00.353Z,50.52
2022-10-17T14:45:34.874Z,50.90
2022-10-17T14:48:13.015Z,50.99
2022-10-17T14:51:05.024Z,50.98
2022-10-17T14:53:37.173Z,51.24
2022-10-17T14:56:25.668Z,51.51
2022-10-17T14:58:57.603Z,51.69
2022-10-17T15:01:29.261Z,52.02
2022-10-17T15:04:00.959Z,52.15
2022-10-17T15:06:34.509Z,52.85
2022-10-17T15:09:06.596Z,52.96
2022-10-17T15:11:38.545Z,53.33
2022-10-17T15:14:10.204Z,53.74
2022-10-17T15:16:41.889Z,53.85
2022-10-17T15:19:15.283Z,54.28
2022-10-17T15:21:47.463Z,54.67
2022-10-17T15:24:19.791Z,54.96
2022-10-17T15:26:51.502Z,55.30
2022-10-17T15:29:23.215Z,55.71
2022-10-17T15:31:54.874Z,56.17
2022-10-17T15:34:26.642Z,56.45
2022-10-17T15:36:58.869Z,56.97
2022-10-17T15:39:30.557Z,57.10
2022-10-17T15:42:02.275Z,57.54
2022-10-17T15:44:34.001Z,57.95
2022-10-17T15:47:06.766Z,58.44
2022-10-17T15:49:38.479Z,58.61
2022-10-17T15:52:11.302Z,59.07
2022-10-17T15:54:42.951Z,59.91
2022-10-17T15:57:20.752Z,60.27
2022-10-17T15:59:53.640Z,60.73
2022-10-17T16:02:26.367Z,61.45
2022-10-17T16:04:58.014Z,61.92
2022-10-17T16:07:29.876Z,62.58
2022-10-17T16:10:01.878Z,63.06
2022-10-17T16:12:38.006Z,63.12
2022-10-17T16:15:14.245Z,63.04
2022-10-17T16:17:46.041Z,63.36
2022-10-17T16:20:17.945Z,63.48
2022-10-17T16:22:50.178Z,63.50
2022-10-17T16:25:24.610Z,63.78
2022-10-17T16:27:58.099Z,64.18
2022-10-17T16:30:32.548Z,64.28
2022-10-17T16:33:04.362Z,64.29
2022-10-17T16:35:37.636Z,64.50
2022-10-17T16:38:10.203Z,64.90
2022-10-17T16:40:42.252Z,65.04
2022-10-17T16:43:15.132Z,65.51
2022-10-17T16:45:46.815Z,65.98
2022-10-17T16:48:18.535Z,66.50
2022-10-17T16:50:50.301Z,66.54
2022-10-17T16:53:21.990Z,66.59
2022-10-17T16:56:02.873Z,67.16
2022-10-17T16:58:34.611Z,67.04
2022-10-17T17:01:09.639Z,67.10
2022-10-17T17:06:31.791Z,67.65
2022-10-17T17:09:03.471Z,67.69
2022-10-17T17:11:35.123Z,67.57
2022-10-17T17:14:07.999Z,67.81
2022-10-17T17:16:44.446Z,67.85
2022-10-17T17:19:17.929Z,67.85
2022-10-17T17:21:50.931Z,68.19
2022-10-17T17:24:23.475Z,68.25
2022-10-17T17:26:57.541Z,68.16
2022-10-17T17:29:29.383Z,68.31
2022-10-17T17:32:01.135Z,68.29
2022-10-17T17:34:36.429Z,68.43
2022-10-17T17:37:08.159Z,68.49
2022-10-17T17:39:40.229Z,68.70
2022-10-17T17:42:12.017Z,68.46
2022-10-17T17:44:43.669Z,68.67
2022-10-17T17:47:15.450Z,68.48
2022-10-17T17:49:47.102Z,68.49
2022-10-17T17:52:18.775Z,68.50
2022-10-17T17:54:51.965Z,68.47
2022-10-17T17:57:23.807Z,68.37
2022-10-17T17:59:55.586Z,68.48
2022-10-17T18:02:27.359Z,68.36
2022-10-17T18:04:59.028Z,68.33
2022-10-17T18:07:31.120Z,68.55
2022-10-17T18:10:02.900Z,68.67
2022-10-17T18:12:35.621Z,68.75
2022-10-17T18:15:11.760Z,69.02
2022-10-17T18:17:43.842Z,68.87
2022-10-17T18:20:16.285Z,68.83
2022-10-17T18:22:48.012Z,68.75
2022-10-17T18:25:19.800Z,68.57
2022-10-17T18:27:51.490Z,68.65
2022-10-17T18:30:25.917Z,68.78
2022-10-17T18:32:59.634Z,68.68
2022-10-17T18:35:31.430Z,68.75
2022-10-17T18:38:03.136Z,68.88
2022-10-17T18:40:34.968Z,68.99
2022-10-17T18:43:06.744Z,69.06
2022-10-17T18:45:40.354Z,69.17
2022-10-17T18:48:12.058Z,69.26
2022-10-17T18:50:43.755Z,69.38
2022-10-17T18:53:15.402Z,69.24
2022-10-17T18:58:24.575Z,69.22
2022-10-17T19:00:56.259Z,69.25
2022-10-17T19:03:27.934Z,69.55
2022-10-17T19:06:03.503Z,69.58
2022-10-17T19:08:35.318Z,69.61
2022-10-17T19:11:09.676Z,69.79
2022-10-17T19:13:41.731Z,69.90
2022-10-17T19:16:14.845Z,69.80
2022-10-17T19:18:49.754Z,69.81
2022-10-17T19:21:22.418Z,69.78
2022-10-17T19:23:56.966Z,69.63
2022-10-17T19:26:31.440Z,69.88
2022-10-17T19:29:03.701Z,69.59
2022-10-17T19:31:36.483Z,69.65
2022-10-17T19:34:08.331Z,69.62
2022-10-17T19:36:41.682Z,69.62
2022-10-17T19:39:15.990Z,69.65
2022-10-17T19:41:49.024Z,69.77
2022-10-17T19:44:20.973Z,69.87
2022-10-17T19:46:52.712Z,69.89
2022-10-17T19:49:24.788Z,69.87
2022-10-17T19:51:56.617Z,69.75
2022-10-17T19:54:28.297Z,69.99
2022-10-17T19:57:00.086Z,69.99
2022-10-17T19:59:31.825Z,70.19
2022-10-17T20:02:03.748Z,70.28
2022-10-17T20:04:35.567Z,70.29
2022-10-17T20:07:07.286Z,70.48
2022-10-17T20:09:39.035Z,70.54
2022-10-17T20:12:10.703Z,70.56
2022-10-17T20:14:42.444Z,70.70
2022-10-17T20:17:14.097Z,70.73
2022-10-17T20:19:46.159Z,70.52
2022-10-17T20:22:17.838Z,70.55
2022-10-17T20:24:50.018Z,70.68
2022-10-17T20:27:26.857Z,70.54
2022-10-17T20:30:01.931Z,70.69
2022-10-17T20:32:39.419Z,70.58
2022-10-17T20:35:11.906Z,70.63
2022-10-17T20:37:43.932Z,70.74
2022-10-17T20:40:34.292Z,70.90
2022-10-17T20:43:07.833Z,70.78
2022-10-17T20:45:51.766Z,70.90
2022-10-17T20:48:24.357Z,70.98
2022-10-17T20:50:56.225Z,70.82
2022-10-17T20:53:43.335Z,70.80
2022-10-17T20:56:22.264Z,70.75
2022-10-17T20:58:55.624Z,70.71
2022-10-17T21:01:28.439Z,70.74
2022-10-17T21:04:15.891Z,70.89
2022-10-17T21:06:53.560Z,71.04
2022-10-17T21:09:25.663Z,71.23
2022-10-17T21:11:57.397Z,71.16
2022-10-17T21:14:29.084Z,71.07
2022-10-17T21:17:04.809Z,70.95
2022-10-17T21:19:37.027Z,70.81
2022-10-17T21:22:08.739Z,70.81
2022-10-17T21:24:40.482Z,70.65
2022-10-17T21:27:17.880Z,70.64
2022-10-17T21:29:50.257Z,70.61
2022-10-17T21:32:47.240Z,70.65
2022-10-17T21:35:13.645Z,70.69
2022-10-17T21:37:45.381Z,70.75
2022-10-17T21:40:17.877Z,70.80
2022-10-17T21:42:49.513Z,70.76
2022-10-17T21:45:25.835Z,70.76
2022-10-17T21:48:13.580Z,70.72
2022-10-17T21:50:45.541Z,70.58
2022-10-17T21:53:17.301Z,70.28
2022-10-17T21:55:48.943Z,70.42
2022-10-17T21:58:21.131Z,70.36
2022-10-17T22:00:52.813Z,70.32
2022-10-17T22:03:25.021Z,70.37
2022-10-17T22:06:07.048Z,70.51
2022-10-17T22:08:49.533Z,70.67
2022-10-17T22:11:23.163Z,70.72
2022-10-17T22:13:58.378Z,70.87
2022-10-17T22:16:30.528Z,70.88
2022-10-17T22:19:06.410Z,70.83
2022-10-17T22:21:39.266Z,70.75
2022-10-17T22:24:14.162Z,70.98
2022-10-17T22:26:47.397Z,70.66
2022-10-17T22:29:19.178Z,70.81
2022-10-17T22:31:50.887Z,70.97
2022-10-17T22:34:22.589Z,70.87
2022-10-17T22:36:54.706Z,71.15
2022-10-17T22:39:26.587Z,70.90
2022-10-17T22:41:58.436Z,71.25
2022-10-17T22:44:30.121Z,71.07
2022-10-17T22:47:01.789Z,71.00
2022-10-17T22:49:34.737Z,70.93
2022-10-17T22:52:06.688Z,70.99
2022-10-17T22:54:38.357Z,70.89
2022-10-17T22:57:10.086Z,70.78
2022-10-17T22:59:41.803Z,70.82
2022-10-17T23:02:13.469Z,71.08
2022-10-17T23:04:46.390Z,71.19
2022-10-17T23:07:18.236Z,71.12
2022-10-17T23:09:49.939Z,70.96
2022-10-17T23:12:21.637Z,70.94
2022-10-17T23:14:53.416Z,70.85
2022-10-17T23:17:25.095Z,70.60
2022-10-17T23:19:57.831Z,70.62
2022-10-17T23:22:29.867Z,70.43
2022-10-17T23:25:01.707Z,70.51
2022-10-17T23:27:34.867Z,70.39
2022-10-17T23:30:08.146Z,70.44
2022-10-17T23:32:39.843Z,70.37
2022-10-17T23:35:12.319Z,70.73
2022-10-17T23:37:44.130Z,70.69
2022-10-17T23:40:16.463Z,70.66
2022-10-17T23:42:48.111Z,70.62
2022-10-17T23:45:20.838Z,70.67
2022-10-17T23:47:52.747Z,70.67
2022-10-17T23:50:24.529Z,70.61
2022-10-17T23:52:56.166Z,70.66
2022-10-17T23:55:27.804Z,70.81
2022-10-17T23:57:59.598Z,70.82
